createdAt,value
2022-12-12T00:02:17.369Z,46.55
2022-12-12T00:04:44.274Z,46.76
2022-12-12T00:07:10.534Z,46.48
2022-12-12T00:09:36.766Z,46.55
2022-12-12T00:12:03.107Z,46.54
2022-12-12T00:14:29.467Z,46.62
2022-12-12T00:16:55.752Z,46.71
2022-12-12T00:19:22.052Z,46.62
2022-12-12T00:21:48.383Z,46.84
2022-12-12T00:24:14.920Z,46.77
2022-12-12T00:26:41.217Z,46.46
2022-12-12T00:29:07.454Z,46.52
2022-12-12T00:31:33.835Z,46.70
2022-12-12T00:34:00.206Z,46.65
2022-12-12T00:36:26.663Z,46.65
2022-12-12T00:38:53.006Z,46.64
2022-12-12T00:41:19.458Z,46.85
2022-12-12T00:43:45.750Z,46.77
2022-12-12T00:46:12.178Z,46.83
2022-12-12T00:48:38.454Z,46.93
2022-12-12T00:51:04.768Z,46.38
2022-12-12T00:53:31.075Z,46.85
2022-12-12T00:55:57.466Z,46.79
2022-12-12T00:58:23.730Z,46.86
2022-12-12T01:00:50.005Z,46.68
2022-12-12T01:03:16.567Z,46.75
2022-12-12T01:05:42.831Z,46.91
2022-12-12T01:08:09.217Z,46.68
2022-12-12T01:10:35.532Z,46.72
2022-12-12T01:13:01.918Z,46.69
2022-12-12T01:15:28.179Z,46.73
2022-12-12T01:17:54.552Z,46.79
2022-12-12T01:20:20.806Z,46.88
2022-12-12T01:22:47.140Z,46.82
2022-12-12T01:25:13.749Z,46.90
2022-12-12T01:27:40.422Z,46.76
2022-12-12T01:30:06.671Z,46.51
2022-12-12T01:32:33.003Z,46.85
2022-12-12T01:34:59.284Z,46.82
2022-12-12T01:37:25.601Z,46.74
2022-12-12T01:39:51.995Z,46.81
2022-12-12T01:42:18.434Z,46.83
2022-12-12T01:44:45.091Z,46.93
2022-12-12T01:47:11.366Z,46.90
2022-12-12T01:49:37.675Z,46.89
2022-12-12T01:52:03.968Z,46.77
2022-12-12T01:54:30.264Z,46.86
2022-12-12T01:56:56.708Z,46.92
2022-12-12T01:59:23.015Z,46.93
2022-12-12T02:01:49.381Z,46.95
2022-12-12T02:04:15.665Z,46.89
2022-12-12T02:06:41.991Z,47.00
2022-12-12T02:09:08.668Z,46.98
2022-12-12T02:11:35.037Z,46.54
2022-12-12T02:14:01.429Z,47.04
2022-12-12T02:16:28.067Z,46.93
2022-12-12T02:18:57.764Z,46.95
2022-12-12T02:21:24.331Z,46.95
2022-12-12T02:23:50.602Z,46.86
2022-12-12T02:26:16.906Z,47.04
2022-12-12T02:28:43.202Z,46.93
2022-12-12T02:31:09.590Z,47.16
2022-12-12T02:33:35.928Z,46.89
2022-12-12T02:36:02.417Z,47.08
2022-12-12T02:38:28.695Z,47.01
2022-12-12T02:40:54.907Z,47.09
2022-12-12T02:43:21.218Z,47.26
2022-12-12T02:45:47.462Z,47.10
2022-12-12T02:48:13.731Z,47.20
2022-12-12T02:50:40.100Z,47.20
2022-12-12T02:53:06.438Z,47.11
2022-12-12T02:55:36.399Z,47.28
2022-12-12T02:58:03.184Z,47.22
2022-12-12T03:00:29.722Z,47.08
2022-12-12T03:02:56.138Z,47.19
2022-12-12T03:05:22.693Z,47.20
2022-12-12T03:07:49.272Z,47.21
2022-12-12T03:10:15.680Z,47.33
2022-12-12T03:12:42.084Z,47.23
2022-12-12T03:15:08.440Z,47.14
2022-12-12T03:17:34.768Z,47.23
2022-12-12T03:20:01.118Z,47.19
2022-12-12T03:22:27.435Z,47.13
2022-12-12T03:24:53.836Z,47.23
2022-12-12T03:27:20.125Z,47.30
2022-12-12T03:29:46.396Z,47.21
2022-12-12T03:32:12.694Z,47.26
2022-12-12T03:34:38.916Z,47.18
2022-12-12T03:37:05.256Z,47.29
2022-12-12T03:39:31.619Z,47.22
2022-12-12T03:41:58.047Z,47.10
2022-12-12T03:44:24.312Z,47.16
2022-12-12T03:46:50.789Z,47.41
2022-12-12T03:49:17.043Z,47.10
2022-12-12T03:51:43.312Z,47.29
2022-12-12T03:54:09.758Z,47.29
2022-12-12T03:56:36.234Z,47.18
2022-12-12T03:59:02.478Z,47.24
2022-12-12T04:01:28.836Z,47.24
2022-12-12T04:03:55.168Z,47.40
2022-12-12T04:06:21.428Z,47.25
2022-12-12T04:08:47.716Z,47.42
2022-12-12T04:11:14.025Z,47.43
2022-12-12T04:13:40.583Z,47.27
2022-12-12T04:16:07.084Z,47.26
2022-12-12T04:18:33.576Z,47.41
2022-12-12T04:20:59.811Z,47.37
2022-12-12T04:23:26.033Z,47.30
2022-12-12T04:25:52.383Z,47.35
2022-12-12T04:28:18.659Z,47.29
2022-12-12T04:30:44.903Z,47.46
2022-12-12T04:33:11.235Z,47.44
2022-12-12T04:35:37.551Z,47.35
2022-12-12T04:38:03.839Z,47.38
2022-12-12T04:40:30.142Z,47.40
2022-12-12T04:42:56.632Z,47.32
2022-12-12T04:45:22.944Z,47.30
2022-12-12T04:47:49.211Z,47.53
2022-12-12T04:52:44.810Z,47.34
2022-12-12T04:55:11.277Z,47.39
2022-12-12T04:57:37.766Z,47.37
2022-12-12T05:00:04.055Z,47.46
2022-12-12T05:02:30.520Z,47.60
2022-12-12T05:04:56.968Z,47.63
2022-12-12T05:07:23.286Z,47.45
2022-12-12T05:09:49.567Z,47.71
2022-12-12T05:12:15.836Z,47.49
2022-12-12T05:14:42.104Z,47.61
2022-12-12T05:17:08.394Z,47.73
2022-12-12T05:19:35.171Z,47.44
2022-12-12T05:22:01.531Z,47.58
2022-12-12T05:24:27.924Z,47.59
2022-12-12T05:26:54.223Z,47.54
2022-12-12T05:29:20.482Z,47.57
2022-12-12T05:31:46.780Z,47.58
2022-12-12T05:34:13.054Z,47.56
2022-12-12T05:36:39.283Z,47.71
2022-12-12T05:39:05.686Z,47.72
2022-12-12T05:41:31.970Z,47.68
2022-12-12T05:43:58.223Z,47.78
2022-12-12T05:46:24.550Z,47.60
2022-12-12T05:48:50.916Z,47.85
2022-12-12T05:51:17.281Z,47.63
2022-12-12T05:53:43.738Z,47.59
2022-12-12T05:56:10.028Z,47.66
2022-12-12T05:58:36.363Z,47.91
2022-12-12T06:01:03.505Z,47.75
2022-12-12T06:03:29.869Z,47.66
2022-12-12T06:05:56.227Z,47.79
2022-12-12T06:08:25.157Z,47.77
2022-12-12T06:10:51.629Z,47.73
2022-12-12T06:13:17.890Z,47.76
2022-12-12T06:15:44.167Z,47.85
2022-12-12T06:18:10.697Z,47.93
2022-12-12T06:20:37.143Z,47.79
2022-12-12T06:23:03.542Z,47.74
2022-12-12T06:25:29.796Z,47.80
2022-12-12T06:27:56.122Z,47.50
2022-12-12T06:30:22.406Z,47.85
2022-12-12T06:32:48.711Z,47.80
2022-12-12T06:35:15.343Z,47.77
2022-12-12T06:37:42.055Z,47.86
2022-12-12T06:40:08.351Z,47.99
2022-12-12T06:42:34.658Z,47.91
2022-12-12T06:45:00.960Z,47.88
2022-12-12T06:47:27.326Z,47.87
2022-12-12T06:49:53.744Z,48.05
2022-12-12T06:52:20.169Z,47.90
2022-12-12T06:54:46.443Z,48.05
2022-12-12T06:57:13.334Z,47.93
2022-12-12T06:59:39.588Z,47.98
2022-12-12T07:02:05.922Z,48.01
2022-12-12T07:04:32.193Z,48.04
2022-12-12T07:06:58.798Z,47.97
2022-12-12T07:09:25.112Z,48.04
2022-12-12T07:11:51.600Z,48.04
2022-12-12T07:14:17.933Z,47.99
2022-12-12T07:16:44.572Z,48.01
2022-12-12T07:19:10.847Z,48.14
2022-12-12T07:21:37.281Z,48.10
2022-12-12T07:24:03.644Z,48.14
2022-12-12T07:26:29.942Z,47.95
2022-12-12T07:28:56.212Z,48.14
2022-12-12T07:31:22.573Z,48.04
2022-12-12T07:33:48.935Z,48.03
2022-12-12T07:36:15.321Z,48.06
2022-12-12T07:38:42.123Z,48.08
2022-12-12T07:41:08.420Z,48.31
2022-12-12T07:43:39.998Z,48.13
2022-12-12T07:46:09.659Z,48.08
2022-12-12T07:48:36.024Z,48.12
2022-12-12T07:51:02.286Z,48.24
2022-12-12T07:53:28.567Z,48.25
2022-12-12T07:55:54.848Z,48.21
2022-12-12T07:58:21.288Z,48.17
2022-12-12T08:00:47.739Z,47.98
2022-12-12T08:03:14.057Z,48.22
2022-12-12T08:05:40.296Z,48.33
2022-12-12T08:08:06.612Z,48.37
2022-12-12T08:10:32.935Z,48.23
2022-12-12T08:12:59.307Z,48.27
2022-12-12T08:15:25.668Z,48.42
2022-12-12T08:17:51.912Z,48.29
2022-12-12T08:20:18.350Z,48.35
2022-12-12T08:22:44.816Z,48.48
2022-12-12T08:25:11.382Z,48.25
2022-12-12T08:27:37.801Z,48.30
2022-12-12T08:30:04.154Z,48.43
2022-12-12T08:32:30.495Z,48.45
2022-12-12T08:34:56.775Z,48.46
2022-12-12T08:37:23.182Z,48.40
2022-12-12T08:39:55.358Z,48.46
2022-12-12T08:42:22.007Z,48.50
2022-12-12T08:44:48.343Z,48.43
2022-12-12T08:47:14.764Z,48.47
2022-12-12T08:49:41.175Z,48.63
2022-12-12T08:52:07.484Z,48.59
2022-12-12T08:54:33.719Z,48.66
2022-12-12T08:57:00.036Z,48.68
2022-12-12T08:59:26.288Z,48.60
2022-12-12T09:01:52.945Z,48.71
2022-12-12T09:04:19.443Z,48.51
2022-12-12T09:06:45.690Z,48.75
2022-12-12T09:09:12.007Z,48.59
2022-12-12T09:11:38.255Z,48.66
2022-12-12T09:14:04.567Z,48.76
2022-12-12T09:16:30.953Z,48.71
2022-12-12T09:18:57.287Z,48.55
2022-12-12T09:21:23.667Z,48.65
2022-12-12T09:23:50.092Z,48.75
2022-12-12T09:26:16.620Z,48.71
2022-12-12T09:28:42.874Z,48.81
2022-12-12T09:31:09.676Z,48.76
2022-12-12T09:33:36.101Z,48.64
2022-12-12T09:36:02.453Z,48.71
2022-12-12T09:38:28.842Z,48.75
2022-12-12T09:40:55.247Z,48.82
2022-12-12T09:43:26.102Z,48.56
2022-12-12T09:45:55.682Z,48.82
2022-12-12T09:48:22.037Z,48.75
2022-12-12T09:50:48.381Z,48.92
2022-12-12T09:53:14.722Z,48.74
2022-12-12T09:55:41.056Z,48.70
2022-12-12T09:58:07.327Z,48.74
2022-12-12T10:00:33.671Z,48.81
2022-12-12T10:03:09.253Z,48.86
2022-12-12T10:05:35.558Z,48.70
2022-12-12T10:08:01.920Z,48.81
2022-12-12T10:10:28.264Z,48.96
2022-12-12T10:12:54.555Z,48.98
2022-12-12T10:15:20.826Z,48.80
2022-12-12T10:17:47.095Z,48.86
2022-12-12T10:20:14.280Z,48.97
2022-12-12T10:22:40.972Z,48.76
2022-12-12T10:25:07.545Z,48.75
2022-12-12T10:27:33.926Z,48.98
2022-12-12T10:30:00.182Z,48.95
2022-12-12T10:32:26.603Z,48.81
2022-12-12T10:34:52.928Z,48.80
2022-12-12T10:37:19.233Z,48.95
2022-12-12T10:39:45.532Z,48.86
2022-12-12T10:42:12.651Z,48.99
2022-12-12T10:44:42.885Z,48.96
2022-12-12T10:47:11.950Z,48.85
2022-12-12T10:49:38.229Z,48.93
2022-12-12T10:52:04.553Z,48.89
2022-12-12T10:54:31.782Z,48.83
2022-12-12T10:56:58.285Z,49.07
2022-12-12T10:59:24.600Z,48.89
2022-12-12T11:02:09.661Z,48.88
2022-12-12T11:04:36.779Z,48.83
2022-12-12T11:07:03.233Z,48.92
2022-12-12T11:09:29.554Z,48.93
2022-12-12T11:11:55.926Z,49.02
2022-12-12T11:14:22.220Z,48.92
2022-12-12T11:16:48.574Z,49.00
2022-12-12T11:19:15.074Z,48.88
2022-12-12T11:21:41.349Z,48.94
2022-12-12T11:24:07.615Z,48.89
2022-12-12T11:26:33.921Z,49.07
2022-12-12T11:29:00.920Z,49.06
2022-12-12T11:31:27.448Z,48.97
2022-12-12T11:33:54.835Z,48.93
2022-12-12T11:36:21.646Z,49.03
2022-12-12T11:38:57.868Z,48.96
2022-12-12T11:41:24.163Z,48.96
2022-12-12T11:43:50.412Z,49.24
2022-12-12T11:46:16.931Z,49.16
2022-12-12T11:48:43.208Z,49.17
2022-12-12T11:51:09.731Z,48.99
2022-12-12T11:53:36.034Z,48.90
2022-12-12T11:56:02.400Z,49.01
2022-12-12T11:58:28.698Z,48.99
2022-12-12T12:00:55.022Z,49.04
2022-12-12T12:03:21.376Z,49.09
2022-12-12T12:05:47.689Z,48.98
2022-12-12T12:08:14.088Z,49.14
2022-12-12T12:10:40.442Z,49.07
2022-12-12T12:13:06.725Z,49.13
2022-12-12T12:15:33.006Z,49.03
2022-12-12T12:17:59.305Z,49.15
2022-12-12T12:20:25.762Z,49.22
2022-12-12T12:22:52.184Z,49.17
2022-12-12T12:25:18.469Z,49.24
2022-12-12T12:27:44.776Z,49.14
2022-12-12T12:30:11.007Z,49.29
2022-12-12T12:35:10.878Z,49.09
2022-12-12T12:37:37.462Z,49.20
2022-12-12T12:40:03.746Z,49.28
2022-12-12T12:42:29.974Z,49.16
2022-12-12T12:44:56.336Z,49.11
2022-12-12T12:47:22.587Z,49.26
2022-12-12T12:49:48.858Z,49.15
2022-12-12T12:52:15.131Z,49.17
2022-12-12T12:54:41.481Z,49.17
2022-12-12T12:57:07.909Z,49.26
2022-12-12T12:59:34.177Z,49.16
2022-12-12T13:02:00.529Z,49.18
2022-12-12T13:04:26.804Z,49.20
2022-12-12T13:06:53.092Z,49.25
2022-12-12T13:09:19.394Z,49.18
2022-12-12T13:11:45.696Z,49.09
2022-12-12T13:14:12.028Z,49.20
2022-12-12T13:16:38.474Z,49.30
2022-12-12T13:19:04.773Z,49.18
2022-12-12T13:21:31.165Z,49.09
2022-12-12T13:23:57.508Z,49.27
2022-12-12T13:26:23.848Z,49.08
2022-12-12T13:28:50.135Z,49.10
2022-12-12T13:31:16.588Z,49.28
2022-12-12T13:33:42.874Z,49.19
2022-12-12T13:36:09.190Z,49.26
2022-12-12T13:38:35.545Z,49.18
2022-12-12T13:41:01.945Z,49.14
2022-12-12T13:43:28.213Z,49.31
2022-12-12T13:45:54.582Z,49.24
2022-12-12T13:48:21.244Z,49.06
2022-12-12T13:50:47.691Z,49.15
2022-12-12T13:53:14.105Z,49.04
2022-12-12T13:55:40.377Z,49.19
2022-12-12T13:58:06.703Z,49.05
2022-12-12T14:00:33.155Z,49.16
2022-12-12T14:03:01.680Z,49.09
2022-12-12T14:05:28.653Z,49.12
2022-12-12T14:07:55.028Z,49.21
2022-12-12T14:10:21.404Z,49.25
2022-12-12T14:12:47.834Z,49.17
2022-12-12T14:15:14.397Z,49.19
2022-12-12T14:17:42.942Z,49.01
2022-12-12T14:20:09.796Z,49.26
2022-12-12T14:22:36.184Z,49.11
2022-12-12T14:25:02.534Z,49.14
2022-12-12T14:27:28.829Z,48.98
2022-12-12T14:29:55.194Z,49.04
2022-12-12T14:32:21.540Z,49.17
2022-12-12T14:34:47.880Z,49.02
2022-12-12T14:37:14.198Z,49.00
2022-12-12T14:39:40.468Z,49.13
2022-12-12T14:42:07.543Z,49.04
2022-12-12T14:44:37.226Z,49.03
2022-12-12T14:47:05.239Z,48.98
2022-12-12T14:49:31.551Z,48.95
2022-12-12T14:51:58.001Z,48.95
2022-12-12T14:54:24.244Z,49.00
2022-12-12T14:56:52.928Z,48.92
2022-12-12T14:59:19.637Z,48.84
2022-12-12T15:01:46.046Z,48.86
2022-12-12T15:04:12.359Z,49.06
2022-12-12T15:06:38.728Z,49.11
2022-12-12T15:09:05.043Z,48.93
2022-12-12T15:11:31.386Z,48.83
2022-12-12T15:13:57.620Z,48.87
2022-12-12T15:16:23.932Z,49.03
2022-12-12T15:18:50.300Z,48.95
2022-12-12T15:21:16.577Z,48.92
2022-12-12T15:23:42.878Z,49.06
2022-12-12T15:26:09.147Z,48.93
2022-12-12T15:28:35.523Z,49.01
2022-12-12T15:31:02.138Z,49.06
2022-12-12T15:33:28.585Z,48.89
2022-12-12T15:35:59.807Z,48.94
2022-12-12T15:38:28.259Z,48.94
2022-12-12T15:40:54.679Z,48.89
2022-12-12T15:43:20.954Z,49.07
2022-12-12T15:45:47.222Z,48.96
2022-12-12T15:48:13.497Z,49.02
2022-12-12T15:50:39.855Z,48.82
2022-12-12T15:53:06.207Z,49.00
2022-12-12T15:55:32.577Z,48.88
2022-12-12T15:57:58.817Z,49.03
2022-12-12T16:00:25.326Z,48.90
2022-12-12T16:02:51.643Z,48.99
2022-12-12T16:05:17.894Z,48.85
2022-12-12T16:07:44.265Z,48.90
2022-12-12T16:10:10.589Z,48.84
2022-12-12T16:12:37.039Z,48.87
2022-12-12T16:15:03.318Z,48.95
2022-12-12T16:17:29.617Z,48.98
2022-12-12T16:19:55.901Z,49.01
2022-12-12T16:22:22.269Z,49.04
2022-12-12T16:24:48.562Z,49.01
2022-12-12T16:27:14.971Z,48.85
2022-12-12T16:29:41.278Z,48.68
2022-12-12T16:32:07.700Z,49.03
2022-12-12T16:34:34.055Z,48.81
2022-12-12T16:37:00.422Z,48.94
2022-12-12T16:39:26.749Z,48.93
2022-12-12T16:41:53.020Z,49.02
2022-12-12T16:44:19.425Z,48.84
2022-12-12T16:46:45.797Z,48.85
2022-12-12T16:49:15.547Z,48.87
2022-12-12T16:51:42.153Z,48.88
2022-12-12T16:54:08.749Z,48.94
2022-12-12T16:56:34.966Z,48.94
2022-12-12T16:59:01.246Z,48.80
2022-12-12T17:01:27.610Z,48.93
2022-12-12T17:03:53.944Z,48.90
2022-12-12T17:06:20.292Z,48.92
2022-12-12T17:08:46.696Z,48.81
2022-12-12T17:11:13.083Z,49.09
2022-12-12T17:13:39.457Z,48.83
2022-12-12T17:16:06.008Z,48.76
2022-12-12T17:18:32.415Z,48.79
2022-12-12T17:20:58.709Z,48.76
2022-12-12T17:23:27.811Z,48.77
2022-12-12T17:26:00.687Z,49.00
2022-12-12T17:28:29.072Z,48.94
2022-12-12T17:30:55.340Z,48.88
2022-12-12T17:33:21.619Z,48.94
2022-12-12T17:35:47.892Z,48.90
2022-12-12T17:38:16.316Z,48.80
2022-12-12T17:40:42.929Z,49.01
2022-12-12T17:43:09.320Z,48.94
2022-12-12T17:45:35.701Z,48.72
2022-12-12T17:48:02.010Z,48.87
2022-12-12T17:50:28.405Z,48.89
2022-12-12T17:52:54.780Z,48.77
2022-12-12T17:55:55.340Z,48.82
2022-12-12T17:58:07.621Z,48.83
2022-12-12T18:00:33.916Z,48.72
2022-12-12T18:03:00.195Z,48.83
2022-12-12T18:05:26.485Z,48.89
2022-12-12T18:07:52.973Z,48.72
2022-12-12T18:10:19.395Z,48.85
2022-12-12T18:12:51.427Z,49.02
2022-12-12T18:15:18.264Z,48.79
2022-12-12T18:17:44.578Z,48.88
2022-12-12T18:20:11.083Z,48.88
2022-12-12T18:22:37.528Z,48.85
2022-12-12T18:25:03.918Z,49.00
2022-12-12T18:27:30.153Z,48.88
2022-12-12T18:29:56.570Z,48.92
2022-12-12T18:32:22.807Z,48.92
2022-12-12T18:34:49.041Z,48.83
2022-12-12T18:37:15.289Z,48.81
2022-12-12T18:39:41.560Z,49.01
2022-12-12T18:42:07.959Z,48.87
2022-12-12T18:44:34.230Z,48.87
2022-12-12T18:47:00.487Z,48.96
2022-12-12T18:49:26.930Z,48.81
2022-12-12T18:51:53.177Z,49.05
2022-12-12T18:54:19.451Z,49.04
2022-12-12T18:56:45.776Z,48.96
2022-12-12T18:59:12.037Z,48.91
2022-12-12T19:01:38.571Z,49.01
2022-12-12T19:04:11.273Z,48.86
2022-12-12T19:06:38.927Z,48.98
2022-12-12T19:09:05.332Z,48.83
2022-12-12T19:11:31.612Z,48.92
2022-12-12T19:13:57.944Z,49.04
2022-12-12T19:16:24.308Z,48.96
2022-12-12T19:18:50.623Z,48.93
2022-12-12T19:21:16.917Z,48.97
2022-12-12T19:23:43.327Z,48.94
2022-12-12T19:26:09.964Z,48.77
2022-12-12T19:28:36.298Z,48.84
2022-12-12T19:31:02.684Z,48.84
2022-12-12T19:33:29.195Z,48.75
2022-12-12T19:35:55.628Z,48.88
2022-12-12T19:38:24.476Z,48.72
2022-12-12T19:40:51.302Z,48.94
2022-12-12T19:43:17.625Z,48.83
2022-12-12T19:45:43.929Z,48.92
2022-12-12T19:48:10.533Z,49.07
2022-12-12T19:50:36.883Z,48.93
2022-12-12T19:53:03.328Z,48.79
2022-12-12T19:55:29.699Z,48.85
2022-12-12T19:57:55.972Z,48.80
2022-12-12T20:00:22.392Z,48.90
2022-12-12T20:02:48.720Z,48.84
2022-12-12T20:05:15.069Z,48.86
2022-12-12T20:07:41.414Z,48.96
2022-12-12T20:10:07.650Z,48.84
2022-12-12T20:12:34.052Z,48.86
2022-12-12T20:15:00.352Z,48.88
2022-12-12T20:17:26.761Z,48.96
2022-12-12T20:19:53.140Z,48.95
2022-12-12T20:22:19.422Z,48.89
2022-12-12T20:24:45.732Z,48.98
2022-12-12T20:27:12.096Z,48.94
2022-12-12T20:29:38.416Z,48.94
2022-12-12T20:32:04.732Z,48.95
2022-12-12T20:34:31.125Z,48.86
2022-12-12T20:36:57.366Z,48.79
2022-12-12T20:39:23.633Z,48.83
2022-12-12T20:41:49.981Z,48.72
2022-12-12T20:44:16.434Z,48.71
2022-12-12T20:46:42.802Z,48.84
2022-12-12T20:49:09.157Z,48.64
2022-12-12T20:54:21.715Z,48.88
2022-12-12T20:56:47.974Z,49.08
2022-12-12T20:59:14.463Z,48.71
2022-12-12T21:01:41.036Z,48.86
2022-12-12T21:04:07.413Z,48.74
2022-12-12T21:06:33.719Z,48.78
2022-12-12T21:09:00.223Z,48.59
2022-12-12T21:11:26.645Z,48.67
2022-12-12T21:13:52.944Z,48.73
2022-12-12T21:16:19.268Z,48.72
2022-12-12T21:18:45.580Z,48.80
2022-12-12T21:21:12.281Z,48.68
2022-12-12T21:23:38.560Z,48.63
2022-12-12T21:26:04.849Z,48.67
2022-12-12T21:28:31.204Z,48.57
2022-12-12T21:30:57.648Z,48.76
2022-12-12T21:33:23.972Z,48.69
2022-12-12T21:35:50.302Z,48.79
2022-12-12T21:38:16.595Z,48.64
2022-12-12T21:40:43.075Z,48.72
2022-12-12T21:43:09.373Z,48.75
2022-12-12T21:45:35.654Z,48.61
2022-12-12T21:48:02.164Z,48.46
2022-12-12T21:50:30.869Z,48.69
2022-12-12T21:52:57.405Z,48.61
2022-12-12T21:55:23.795Z,48.55
2022-12-12T21:57:50.085Z,48.65
2022-12-12T22:00:16.332Z,48.51
2022-12-12T22:02:45.839Z,48.66
2022-12-12T22:05:16.326Z,48.68
2022-12-12T22:07:42.773Z,48.74
2022-12-12T22:10:11.528Z,48.53
2022-12-12T22:12:38.248Z,48.57
2022-12-12T22:15:04.697Z,48.49
2022-12-12T22:17:31.010Z,48.65
2022-12-12T22:19:57.432Z,48.57
2022-12-12T22:22:23.945Z,48.55
2022-12-12T22:24:50.288Z,48.42
2022-12-12T22:27:16.740Z,48.53
2022-12-12T22:29:43.023Z,48.44
2022-12-12T22:32:09.278Z,48.64
2022-12-12T22:34:35.707Z,48.45
2022-12-12T22:37:02.011Z,48.63
2022-12-12T22:39:28.279Z,48.67
2022-12-12T22:41:54.728Z,48.51
2022-12-12T22:44:20.975Z,48.48
2022-12-12T22:46:47.432Z,48.53
2022-12-12T22:49:13.771Z,48.44
2022-12-12T22:51:40.112Z,48.46
2022-12-12T22:54:06.458Z,48.48
2022-12-12T22:56:32.741Z,48.49
2022-12-12T22:58:59.082Z,48.51
2022-12-12T23:01:25.362Z,48.53
2022-12-12T23:03:51.704Z,48.42
2022-12-12T23:06:17.997Z,48.53
2022-12-12T23:08:44.301Z,48.53
2022-12-12T23:11:10.578Z,48.38
2022-12-12T23:13:37.142Z,48.32
2022-12-12T23:16:03.747Z,48.52
2022-12-12T23:18:30.161Z,48.48
2022-12-12T23:20:56.463Z,48.57
2022-12-12T23:23:23.077Z,48.52
2022-12-12T23:25:49.335Z,48.48
2022-12-12T23:28:15.728Z,48.62
2022-12-12T23:30:42.059Z,48.55
2022-12-12T23:33:08.322Z,48.52
2022-12-12T23:35:34.688Z,48.60
2022-12-12T23:38:01.002Z,48.58
2022-12-12T23:40:27.445Z,48.37
2022-12-12T23:42:53.821Z,48.50
2022-12-12T23:45:20.143Z,48.59
2022-12-12T23:47:47.061Z,48.46
2022-12-12T23:50:13.362Z,48.54
2022-12-12T23:52:39.646Z,48.54
2022-12-12T23:55:05.962Z,48.69
2022-12-12T23:57:32.486Z,48.51
2022-12-12T23:59:58.892Z,48.57
